This is the latest recevied weather packets stored in our database for station/object WA4ORT. If no packets are shown the sender has not sent any weather packets the latest 10 day(s).
| Time | Temp. | Humidity | Pressure | Rain* | Wind** | Luminosity | Snow |
|---|---|---|---|---|---|---|---|
| 1788303985 | 32.22° C | - | - | 0 mm | 0 m/s | - | - |
| 1788302263 | 32.78° C | - | - | 0 mm | 0.45 m/s, 356° | - | - |
| 1788302193 | 32.78° C | - | - | 0 mm | 0.45 m/s, 356° | - | - |
| 1788301446 | 33.33° C | - | - | 0 mm | 1.34 m/s, 340° | - | - |
| 1788301299 | 33.33° C | - | - | 0 mm | 1.34 m/s, 340° | - | - |
| 1788299507 | 33.33° C | - | - | 0 mm | 0.89 m/s, 17° | - | - |
| 1788298613 | 33.33° C | - | - | 0 mm | 0.45 m/s, 87° | - | - |
| 1788297791 | 33.33° C | - | - | 0 mm | 0 m/s | - | - |
| 1788297715 | 33.33° C | - | - | 0 mm | 0 m/s | - | - |
| 1788296869 | 33.33° C | - | - | 0 mm | 0.45 m/s, 52° | - | - |
| 1788296820 | 33.33° C | - | - | 0 mm | 0.45 m/s, 52° | - | - |
| 1788295926 | 33.33° C | - | - | 0 mm | 0 m/s | - | - |
| 1788295028 | 33.33° C | - | - | 0 mm | 1.79 m/s, 52° | - | - |
| 1788294134 | 33.33° C | - | - | 0 mm | 1.34 m/s, 68° | - | - |
| 1788292342 | 33.33° C | - | - | 0 mm | 1.34 m/s, 186° | - | - |
| 1788291447 | 33.33° C | - | - | 0 mm | 0.89 m/s, 240° | - | - |
| 1788290553 | 32.78° C | - | - | 0 mm | 0.89 m/s, 269° | - | - |
| 1788289655 | 32.22° C | - | - | 0 mm | 0.89 m/s, 294° | - | - |
| 1788288761 | 32.22° C | - | - | 0 mm | 0.89 m/s, 18° | - | - |
| 1788287866 | 32.78° C | - | - | 0 mm | 1.79 m/s, 66° | - | - |
| 1788286969 | 32.22° C | - | - | 0 mm | 1.34 m/s, 333° | - | - |
| 1788286074 | 32.22° C | - | - | 0 mm | 0.45 m/s, 352° | - | - |
| 1788285180 | 31.67° C | - | - | 0 mm | 0.89 m/s, 23° | - | - |
| 1788284282 | 32.22° C | - | - | 0 mm | 2.24 m/s, 118° | - | - |
| 1788283388 | 31.11° C | - | - | 0 mm | 0.89 m/s, 72° | - | - |
* Rain latest hour (hover to see other rain measurements)
** Current wind speed in m/s (hover to see current wind gust speed)